Flight Track Log - Related Links

Times and Time Zones

All times are in EDT time to prevent confusion due to time zone crossing. See the DAL3741 flight status page for this flight to view local times or setup timezone preferences in your user account.

Time Position Orientation Groundspeed Altitude Reporting Facility
EDT Latitude Longitude Course Direction KTS MPH feet Rate Location/Type
Wed 05:07:07 PM 44.8069 -89.7589 282° West 203 234 4,600  Level Minneapolis Center
Wed 05:08:09 PM 44.8144 -89.8686 276° West 268 308 7,800 3,000 Climbing Minneapolis Center
Wed 05:09:11 PM 44.8194 -89.9725 274° West 258 297 10,800 2,177 Climbing Minneapolis Center
Wed 05:10:00 PM 44.8148 -90.1883 275° West  Level FlightAware Approximate
Wed 05:10:13 PM 44.8258 -90.0908 274° West 289 333 12,300  Level Minneapolis Center
Wed 05:11:00 PM 44.8167 -90.2948 270° West  Level FlightAware Approximate
Wed 05:11:15 PM 44.8333 -90.2275 274° West 331 381 14,100  Level Minneapolis Center
Wed 05:12:17 PM 44.8417 -90.3661 275° West 339 390 15,800 871 Climbing Minneapolis Center
Wed 05:13:19 PM 44.8500 -90.5097 275° West 352 405 15,900 145 Climbing Minneapolis Center
Wed 05:14:21 PM 44.8575 -90.6486 274° West 345 397 16,100 97 Climbing Minneapolis Center
Wed 05:15:23 PM 44.8644 -90.7933 274° West 352 405 16,100  Level Minneapolis Center
Wed 05:16:25 PM 44.8722 -90.9275 275° West 358 412 16,100  Level Minneapolis Center
Wed 05:17:28 PM 44.8778 -91.0686 273° West 348 400 16,100  Level Minneapolis Center
Wed 05:18:30 PM 44.8850 -91.2089 274° West 345 397 16,100 48 Level Minneapolis Center
Wed 05:19:32 PM 44.8928 -91.3450 275° West 337 388 16,200  Climbing Minneapolis Center
Wed 05:20:34 PM 44.9153 -91.4825 283° West 345 397 16,100 -48 Descending Minneapolis Center
Wed 05:21:36 PM 44.9389 -91.6203 284° West 348 400 16,100  Level Minneapolis Center
Wed 05:22:38 PM 44.9586 -91.7367 284° West 346 398 16,100  Level Minneapolis Center
Wed 05:23:40 PM 44.9814 -91.8728 283° West 355 409 16,100 -774 Level Minneapolis Center
Wed 05:24:42 PM 45.0092 -92.0331 284° West 351 404 14,500 -1,694 Descending Minneapolis Center
Wed 05:25:44 PM 45.0286 -92.1594 282° West 335 386 12,600 -1,597 Descending Minneapolis Center
Wed 05:26:46 PM 45.0469 -92.2900 281° West 341 392 11,200 -823 Descending Minneapolis Center
Wed 05:27:48 PM 45.0211 -92.4047 252° West 305 351 10,900 -532 Descending Minneapolis Center
Wed 05:28:50 PM 44.9731 -92.4867 230° Southwest 272 313 10,100 -968 Descending Minneapolis Center
Wed 05:29:52 PM 44.9244 -92.5925 237° Southwest 268 308 8,900 -1,113 Descending Minneapolis Center
Wed 05:30:54 PM 44.8867 -92.6814 239° Southwest 266 306 7,800 -1,016 Descending Minneapolis Center
Wed 05:31:56 PM 44.8472 -92.7714 238° Southwest 270 311 6,800 -968 Descending Minneapolis Center
Wed 05:32:58 PM 44.8122 -92.8517 238° Southwest 244 281 5,800 -968 Descending Minneapolis Center
Wed 05:34:00 PM 44.7864 -92.9317 246° West 233 268 4,800 -823 Descending Minneapolis Center
Wed 05:35:02 PM 44.7964 -93.0039 281° West 189 217 4,100 -919 Descending Minneapolis Center
Wed 05:36:04 PM 44.8278 -93.0708 303° West 172 198 2,900 -1,161 Descending Minneapolis Center

Login

Don't have an account? Register now (free) for customized features, flight alerts, and more!